בריסל, בלגיה

05:28 AM CEST , יוני 30, 2015 (GMT +0200)
Brussels National | | Change Station
CLOSE
Current Station
Airport
Location: Brussels,
Elevation: 190 ft
Nearby Weather Stations

Elev 190 ft 50.90 °N, 4.53 °E | Updated 8 minutes ago

Clear
בהיר
54 ° F
Feels Like 54 ° F
צפ
1
רוח משתנה רוח from דרום

היום
High -- | Low -- ° F
--% Chance of Precip.
אתמול
High -- | Low -- ° F
Precip. -- אינץ
5:31 AM 9:59 PM
לקראת מילוא, 95% visible
לחץ 30.18 אינץ
ראות -9999.0 מיילים
עננים
טמפ עיבוי 50 ° F
לחות 88%
גשם 0.00 אינץ
עומק השלג Not available.
UV Not available.
Pollen Not available.
איכות האוויר Not available.
Flu Activity Not available.
METAR EBBR 300320Z 18001KT CAVOK 12/10 Q1022 NOSIG

More Conditions Fewer Conditions

לחץ 30.18 אינץ
ראות -9999.0 מיילים
עננים
טמפ עיבוי 50 ° F
לחות 88%
גשם 0.00 אינץ
עומק השלג Not available.
UV Not available.
Pollen Not available.
איכות האוויר Not available.
Flu Activity Not available.
METAR EBBR 300320Z 18001KT CAVOK 12/10 Q1022 NOSIG

More Conditions Fewer Conditions

10-Day Weather Forecast

×

Almanac

אסטרונומיה

Jun. 30, 2015 Rise Set
Actual Time
Civil Twilight
Nautical Twilight
Astronomical Twilight
ירח
Length Of Visible Light
אורך היום
Tomorrow will be .
, % of the Moon is Illuminated

Today's Extremes

Country Highs Country Lows

Community

WunderPhotos

Upload Photos

1,833,951 photos uploaded!

WunderBlogs® & News

Nearby

איכות האוויר

  איכות האוויר אינדקס איכות האוויר חומר מזהם
Not available.

עומק שלג

Station Depth Elevation

Earthquake Activity

עיר Distance Mag. Time & Date
Minimum magnitude displayed is 2.5.

Coastal Water Temperatures

מקום טמפרטורה

Stations

Nearby Weather Stations

Station Location טמפ רוח צוננת טמפ עיבוי לחות רוח Precip. Elev מעודכן Type